sensor_id;sensor_type;location;lat;lon;timestamp;P1;durP1;ratioP1;P2;durP2;ratioP2
19278;SDS011;9773;47.062;15.446;2023-01-19T00:02:13;2.07;;;1.97;;
19278;SDS011;9773;47.062;15.446;2023-01-19T00:04:39;2.20;;;2.10;;
19278;SDS011;9773;47.062;15.446;2023-01-19T00:07:05;2.37;;;2.27;;
19278;SDS011;9773;47.062;15.446;2023-01-19T00:09:33;2.70;;;2.50;;
19278;SDS011;9773;47.062;15.446;2023-01-19T00:12:02;2.50;;;2.40;;
19278;SDS011;9773;47.062;15.446;2023-01-19T00:14:29;3.10;;;2.90;;
19278;SDS011;9773;47.062;15.446;2023-01-19T00:16:55;3.10;;;2.90;;
19278;SDS011;9773;47.062;15.446;2023-01-19T00:19:21;3.03;;;2.83;;
19278;SDS011;9773;47.062;15.446;2023-01-19T00:21:47;2.80;;;2.60;;
19278;SDS011;9773;47.062;15.446;2023-01-19T00:24:13;2.70;;;2.50;;
19278;SDS011;9773;47.062;15.446;2023-01-19T00:26:39;4.53;;;3.00;;
19278;SDS011;9773;47.062;15.446;2023-01-19T00:29:09;3.37;;;3.17;;
19278;SDS011;9773;47.062;15.446;2023-01-19T00:31:35;4.03;;;3.37;;
19278;SDS011;9773;47.062;15.446;2023-01-19T00:34:02;4.03;;;3.60;;
19278;SDS011;9773;47.062;15.446;2023-01-19T00:36:29;3.90;;;3.60;;
19278;SDS011;9773;47.062;15.446;2023-01-19T00:38:55;3.30;;;3.00;;
19278;SDS011;9773;47.062;15.446;2023-01-19T00:41:21;3.40;;;3.20;;
19278;SDS011;9773;47.062;15.446;2023-01-19T00:44:07;3.23;;;2.97;;
19278;SDS011;9773;47.062;15.446;2023-01-19T00:46:34;3.97;;;3.57;;
19278;SDS011;9773;47.062;15.446;2023-01-19T00:48:59;3.30;;;3.00;;
19278;SDS011;9773;47.062;15.446;2023-01-19T00:51:25;3.33;;;3.07;;
19278;SDS011;9773;47.062;15.446;2023-01-19T00:53:51;3.07;;;2.87;;
19278;SDS011;9773;47.062;15.446;2023-01-19T00:56:17;3.73;;;3.40;;
19278;SDS011;9773;47.062;15.446;2023-01-19T00:58:43;4.97;;;3.50;;
19278;SDS011;9773;47.062;15.446;2023-01-19T01:01:12;3.30;;;3.00;;
19278;SDS011;9773;47.062;15.446;2023-01-19T01:03:38;3.90;;;3.60;;
19278;SDS011;9773;47.062;15.446;2023-01-19T01:06:04;3.67;;;3.37;;
19278;SDS011;9773;47.062;15.446;2023-01-19T01:08:32;5.73;;;3.70;;
19278;SDS011;9773;47.062;15.446;2023-01-19T01:10:58;3.50;;;3.30;;
19278;SDS011;9773;47.062;15.446;2023-01-19T01:13:25;3.17;;;2.97;;
19278;SDS011;9773;47.062;15.446;2023-01-19T01:15:52;3.13;;;2.93;;
19278;SDS011;9773;47.062;15.446;2023-01-19T01:18:20;3.00;;;2.80;;
19278;SDS011;9773;47.062;15.446;2023-01-19T01:20:46;3.50;;;3.13;;
19278;SDS011;9773;47.062;15.446;2023-01-19T01:23:12;3.90;;;3.33;;
19278;SDS011;9773;47.062;15.446;2023-01-19T01:25:39;3.60;;;3.30;;
19278;SDS011;9773;47.062;15.446;2023-01-19T01:28:05;3.07;;;2.80;;
19278;SDS011;9773;47.062;15.446;2023-01-19T01:30:33;3.83;;;3.03;;
19278;SDS011;9773;47.062;15.446;2023-01-19T01:33:04;3.40;;;2.83;;
19278;SDS011;9773;47.062;15.446;2023-01-19T01:35:30;3.27;;;2.97;;
19278;SDS011;9773;47.062;15.446;2023-01-19T01:37:58;3.57;;;2.97;;
19278;SDS011;9773;47.062;15.446;2023-01-19T01:40:25;3.23;;;2.93;;
19278;SDS011;9773;47.062;15.446;2023-01-19T01:42:51;3.60;;;3.30;;
19278;SDS011;9773;47.062;15.446;2023-01-19T01:45:34;2.90;;;2.70;;
19278;SDS011;9773;47.062;15.446;2023-01-19T01:48:08;2.83;;;2.63;;
19278;SDS011;9773;47.062;15.446;2023-01-19T01:50:53;3.20;;;3.00;;
19278;SDS011;9773;47.062;15.446;2023-01-19T01:53:44;2.63;;;2.43;;
19278;SDS011;9773;47.062;15.446;2023-01-19T01:56:14;2.80;;;2.60;;
19278;SDS011;9773;47.062;15.446;2023-01-19T01:58:45;2.87;;;2.67;;
19278;SDS011;9773;47.062;15.446;2023-01-19T02:01:12;3.97;;;3.00;;
19278;SDS011;9773;47.062;15.446;2023-01-19T02:03:56;2.70;;;2.50;;
19278;SDS011;9773;47.062;15.446;2023-01-19T02:06:23;2.60;;;2.50;;
19278;SDS011;9773;47.062;15.446;2023-01-19T02:08:54;2.70;;;2.50;;
19278;SDS011;9773;47.062;15.446;2023-01-19T02:11:49;2.80;;;2.60;;
19278;SDS011;9773;47.062;15.446;2023-01-19T02:14:34;2.40;;;2.30;;
19278;SDS011;9773;47.062;15.446;2023-01-19T02:17:03;2.57;;;2.40;;
19278;SDS011;9773;47.062;15.446;2023-01-19T02:19:33;2.77;;;2.57;;
19278;SDS011;9773;47.062;15.446;2023-01-19T02:22:10;2.97;;;2.77;;
19278;SDS011;9773;47.062;15.446;2023-01-19T02:24:39;3.10;;;2.90;;
19278;SDS011;9773;47.062;15.446;2023-01-19T02:27:05;3.27;;;3.07;;
19278;SDS011;9773;47.062;15.446;2023-01-19T02:29:31;3.03;;;2.80;;
19278;SDS011;9773;47.062;15.446;2023-01-19T02:31:59;4.60;;;3.40;;
19278;SDS011;9773;47.062;15.446;2023-01-19T02:34:26;3.00;;;2.70;;
19278;SDS011;9773;47.062;15.446;2023-01-19T02:37:00;3.20;;;2.80;;
19278;SDS011;9773;47.062;15.446;2023-01-19T02:39:35;2.80;;;2.60;;
19278;SDS011;9773;47.062;15.446;2023-01-19T02:42:13;2.97;;;2.77;;
19278;SDS011;9773;47.062;15.446;2023-01-19T02:44:44;2.53;;;2.30;;
19278;SDS011;9773;47.062;15.446;2023-01-19T02:47:13;2.63;;;2.43;;
19278;SDS011;9773;47.062;15.446;2023-01-19T02:49:39;2.60;;;2.50;;
19278;SDS011;9773;47.062;15.446;2023-01-19T02:52:05;2.40;;;2.27;;
19278;SDS011;9773;47.062;15.446;2023-01-19T03:08:16;1.70;;;1.67;;
19278;SDS011;9773;47.062;15.446;2023-01-19T03:10:53;2.00;;;1.90;;
19278;SDS011;9773;47.062;15.446;2023-01-19T03:15:57;1.70;;;1.60;;
19278;SDS011;9773;47.062;15.446;2023-01-19T03:18:39;2.53;;;1.43;;
19278;SDS011;9773;47.062;15.446;2023-01-19T03:21:09;1.60;;;1.60;;
19278;SDS011;9773;47.062;15.446;2023-01-19T03:23:38;1.60;;;1.60;;
19278;SDS011;9773;47.062;15.446;2023-01-19T03:26:07;1.50;;;1.50;;
19278;SDS011;9773;47.062;15.446;2023-01-19T03:28:35;1.60;;;1.60;;
19278;SDS011;9773;47.062;15.446;2023-01-19T03:31:15;1.50;;;1.50;;
19278;SDS011;9773;47.062;15.446;2023-01-19T03:33:49;1.70;;;1.60;;
19278;SDS011;9773;47.062;15.446;2023-01-19T03:36:27;1.53;;;1.50;;
19278;SDS011;9773;47.062;15.446;2023-01-19T03:38:56;1.50;;;1.40;;
19278;SDS011;9773;47.062;15.446;2023-01-19T03:41:23;1.67;;;1.57;;
19278;SDS011;9773;47.062;15.446;2023-01-19T03:43:53;1.50;;;1.50;;
19278;SDS011;9773;47.062;15.446;2023-01-19T03:46:21;1.40;;;1.40;;
19278;SDS011;9773;47.062;15.446;2023-01-19T03:48:48;1.43;;;1.43;;
19278;SDS011;9773;47.062;15.446;2023-01-19T03:51:15;1.43;;;1.43;;
19278;SDS011;9773;47.062;15.446;2023-01-19T03:53:42;1.60;;;1.60;;
19278;SDS011;9773;47.062;15.446;2023-01-19T03:56:15;1.33;;;1.33;;
19278;SDS011;9773;47.062;15.446;2023-01-19T03:58:43;1.57;;;1.57;;
19278;SDS011;9773;47.062;15.446;2023-01-19T04:01:09;1.43;;;1.43;;
19278;SDS011;9773;47.062;15.446;2023-01-19T04:03:35;1.53;;;1.53;;
19278;SDS011;9773;47.062;15.446;2023-01-19T04:06:01;1.70;;;1.70;;
19278;SDS011;9773;47.062;15.446;2023-01-19T04:08:27;1.60;;;1.60;;
19278;SDS011;9773;47.062;15.446;2023-01-19T04:10:53;1.50;;;1.50;;
19278;SDS011;9773;47.062;15.446;2023-01-19T04:13:21;1.50;;;1.40;;
19278;SDS011;9773;47.062;15.446;2023-01-19T04:15:47;1.50;;;1.50;;
19278;SDS011;9773;47.062;15.446;2023-01-19T04:18:13;1.30;;;1.30;;
19278;SDS011;9773;47.062;15.446;2023-01-19T04:20:39;1.60;;;1.50;;
19278;SDS011;9773;47.062;15.446;2023-01-19T04:23:05;1.43;;;1.33;;
19278;SDS011;9773;47.062;15.446;2023-01-19T04:25:30;1.30;;;1.30;;
19278;SDS011;9773;47.062;15.446;2023-01-19T04:27:57;1.50;;;1.50;;
19278;SDS011;9773;47.062;15.446;2023-01-19T04:30:23;1.30;;;1.30;;
19278;SDS011;9773;47.062;15.446;2023-01-19T04:32:50;1.30;;;1.30;;
19278;SDS011;9773;47.062;15.446;2023-01-19T04:35:16;1.40;;;1.40;;
19278;SDS011;9773;47.062;15.446;2023-01-19T04:37:42;1.40;;;1.40;;
19278;SDS011;9773;47.062;15.446;2023-01-19T04:40:09;1.80;;;1.70;;
19278;SDS011;9773;47.062;15.446;2023-01-19T04:42:35;1.20;;;1.20;;
19278;SDS011;9773;47.062;15.446;2023-01-19T04:45:01;1.60;;;1.60;;
19278;SDS011;9773;47.062;15.446;2023-01-19T04:47:27;1.63;;;1.63;;
19278;SDS011;9773;47.062;15.446;2023-01-19T04:49:52;1.77;;;1.67;;
19278;SDS011;9773;47.062;15.446;2023-01-19T04:52:18;1.70;;;1.60;;
19278;SDS011;9773;47.062;15.446;2023-01-19T04:54:44;1.50;;;1.50;;
19278;SDS011;9773;47.062;15.446;2023-01-19T04:57:10;1.60;;;1.50;;
19278;SDS011;9773;47.062;15.446;2023-01-19T04:59:35;1.50;;;1.40;;
19278;SDS011;9773;47.062;15.446;2023-01-19T05:02:01;1.57;;;1.53;;
19278;SDS011;9773;47.062;15.446;2023-01-19T05:04:27;1.50;;;1.50;;
19278;SDS011;9773;47.062;15.446;2023-01-19T05:06:53;1.87;;;1.77;;
19278;SDS011;9773;47.062;15.446;2023-01-19T05:09:19;1.67;;;1.60;;
19278;SDS011;9773;47.062;15.446;2023-01-19T05:11:44;1.70;;;1.60;;
19278;SDS011;9773;47.062;15.446;2023-01-19T05:14:10;1.60;;;1.60;;
19278;SDS011;9773;47.062;15.446;2023-01-19T05:16:36;1.67;;;1.57;;
19278;SDS011;9773;47.062;15.446;2023-01-19T05:19:02;1.60;;;1.60;;
19278;SDS011;9773;47.062;15.446;2023-01-19T05:21:28;1.77;;;1.70;;
19278;SDS011;9773;47.062;15.446;2023-01-19T05:23:54;2.13;;;1.67;;
19278;SDS011;9773;47.062;15.446;2023-01-19T05:26:19;1.37;;;1.37;;
19278;SDS011;9773;47.062;15.446;2023-01-19T05:28:45;1.50;;;1.40;;
19278;SDS011;9773;47.062;15.446;2023-01-19T05:31:11;1.60;;;1.60;;
19278;SDS011;9773;47.062;15.446;2023-01-19T05:33:37;1.60;;;1.50;;
19278;SDS011;9773;47.062;15.446;2023-01-19T05:36:03;1.70;;;1.60;;
19278;SDS011;9773;47.062;15.446;2023-01-19T05:38:29;1.80;;;1.77;;
19278;SDS011;9773;47.062;15.446;2023-01-19T05:40:56;1.50;;;1.50;;
19278;SDS011;9773;47.062;15.446;2023-01-19T05:43:23;2.00;;;1.80;;
19278;SDS011;9773;47.062;15.446;2023-01-19T05:45:49;1.70;;;1.60;;
19278;SDS011;9773;47.062;15.446;2023-01-19T05:48:15;1.70;;;1.60;;
19278;SDS011;9773;47.062;15.446;2023-01-19T05:50:41;1.73;;;1.63;;
19278;SDS011;9773;47.062;15.446;2023-01-19T05:53:07;1.83;;;1.73;;
19278;SDS011;9773;47.062;15.446;2023-01-19T05:55:33;1.47;;;1.47;;
19278;SDS011;9773;47.062;15.446;2023-01-19T05:57:59;2.33;;;2.23;;
19278;SDS011;9773;47.062;15.446;2023-01-19T06:00:25;1.97;;;1.80;;
19278;SDS011;9773;47.062;15.446;2023-01-19T06:02:51;1.83;;;1.73;;
19278;SDS011;9773;47.062;15.446;2023-01-19T06:05:17;1.80;;;1.70;;
19278;SDS011;9773;47.062;15.446;2023-01-19T06:07:44;1.50;;;1.50;;
19278;SDS011;9773;47.062;15.446;2023-01-19T06:10:09;1.70;;;1.60;;
19278;SDS011;9773;47.062;15.446;2023-01-19T06:12:37;1.80;;;1.70;;
19278;SDS011;9773;47.062;15.446;2023-01-19T06:15:05;1.77;;;1.67;;
19278;SDS011;9773;47.062;15.446;2023-01-19T06:17:31;1.80;;;1.70;;
19278;SDS011;9773;47.062;15.446;2023-01-19T06:19:57;1.60;;;1.50;;
19278;SDS011;9773;47.062;15.446;2023-01-19T06:22:23;1.60;;;1.57;;
19278;SDS011;9773;47.062;15.446;2023-01-19T06:24:49;1.73;;;1.70;;
19278;SDS011;9773;47.062;15.446;2023-01-19T06:27:15;1.80;;;1.77;;
19278;SDS011;9773;47.062;15.446;2023-01-19T06:29:41;1.90;;;1.80;;
19278;SDS011;9773;47.062;15.446;2023-01-19T06:32:06;1.70;;;1.60;;
19278;SDS011;9773;47.062;15.446;2023-01-19T06:34:32;1.50;;;1.40;;
19278;SDS011;9773;47.062;15.446;2023-01-19T06:36:58;1.77;;;1.67;;
19278;SDS011;9773;47.062;15.446;2023-01-19T06:39:24;1.90;;;1.80;;
19278;SDS011;9773;47.062;15.446;2023-01-19T06:41:50;2.40;;;2.20;;
19278;SDS011;9773;47.062;15.446;2023-01-19T06:44:15;2.10;;;2.00;;
19278;SDS011;9773;47.062;15.446;2023-01-19T06:46:41;2.13;;;2.00;;
19278;SDS011;9773;47.062;15.446;2023-01-19T06:49:07;2.70;;;2.37;;
19278;SDS011;9773;47.062;15.446;2023-01-19T06:51:33;2.90;;;2.60;;
19278;SDS011;9773;47.062;15.446;2023-01-19T06:53:58;4.20;;;2.57;;
19278;SDS011;9773;47.062;15.446;2023-01-19T06:56:24;1.67;;;1.57;;
19278;SDS011;9773;47.062;15.446;2023-01-19T06:58:50;1.60;;;1.60;;
19278;SDS011;9773;47.062;15.446;2023-01-19T07:01:17;1.87;;;1.83;;
19278;SDS011;9773;47.062;15.446;2023-01-19T07:03:43;2.00;;;1.90;;
19278;SDS011;9773;47.062;15.446;2023-01-19T07:06:09;1.90;;;1.80;;
19278;SDS011;9773;47.062;15.446;2023-01-19T07:08:35;1.90;;;1.80;;
19278;SDS011;9773;47.062;15.446;2023-01-19T07:11:03;2.67;;;1.70;;
19278;SDS011;9773;47.062;15.446;2023-01-19T07:13:34;1.60;;;1.50;;
19278;SDS011;9773;47.062;15.446;2023-01-19T07:16:04;2.20;;;1.50;;
19278;SDS011;9773;47.062;15.446;2023-01-19T07:18:31;1.63;;;1.63;;
19278;SDS011;9773;47.062;15.446;2023-01-19T07:20:57;1.47;;;1.47;;
19278;SDS011;9773;47.062;15.446;2023-01-19T07:23:23;1.47;;;1.47;;
19278;SDS011;9773;47.062;15.446;2023-01-19T07:25:49;2.40;;;1.70;;
19278;SDS011;9773;47.062;15.446;2023-01-19T07:28:15;1.90;;;1.80;;
19278;SDS011;9773;47.062;15.446;2023-01-19T07:30:41;1.30;;;1.30;;
19278;SDS011;9773;47.062;15.446;2023-01-19T07:33:08;1.43;;;1.33;;
19278;SDS011;9773;47.062;15.446;2023-01-19T07:35:33;1.53;;;1.43;;
19278;SDS011;9773;47.062;15.446;2023-01-19T07:37:59;1.97;;;1.80;;
19278;SDS011;9773;47.062;15.446;2023-01-19T07:40:26;1.77;;;1.67;;
19278;SDS011;9773;47.062;15.446;2023-01-19T07:42:52;1.70;;;1.67;;
19278;SDS011;9773;47.062;15.446;2023-01-19T07:45:18;1.73;;;1.63;;
19278;SDS011;9773;47.062;15.446;2023-01-19T07:47:45;1.57;;;1.57;;
19278;SDS011;9773;47.062;15.446;2023-01-19T07:50:16;1.50;;;1.47;;
19278;SDS011;9773;47.062;15.446;2023-01-19T07:52:45;1.57;;;1.57;;
19278;SDS011;9773;47.062;15.446;2023-01-19T07:55:11;1.60;;;1.50;;
19278;SDS011;9773;47.062;15.446;2023-01-19T07:57:36;2.40;;;1.70;;
19278;SDS011;9773;47.062;15.446;2023-01-19T08:00:03;1.70;;;1.60;;
19278;SDS011;9773;47.062;15.446;2023-01-19T08:02:29;1.63;;;1.57;;
19278;SDS011;9773;47.062;15.446;2023-01-19T08:04:57;1.60;;;1.50;;
19278;SDS011;9773;47.062;15.446;2023-01-19T08:07:23;2.27;;;1.40;;
19278;SDS011;9773;47.062;15.446;2023-01-19T08:09:49;1.50;;;1.40;;
19278;SDS011;9773;47.062;15.446;2023-01-19T08:12:15;1.37;;;1.33;;
19278;SDS011;9773;47.062;15.446;2023-01-19T08:14:41;1.47;;;1.47;;
19278;SDS011;9773;47.062;15.446;2023-01-19T08:17:09;1.10;;;1.10;;
19278;SDS011;9773;47.062;15.446;2023-01-19T08:19:37;1.30;;;1.30;;
19278;SDS011;9773;47.062;15.446;2023-01-19T08:22:04;1.33;;;1.30;;
19278;SDS011;9773;47.062;15.446;2023-01-19T08:24:30;1.40;;;1.40;;
19278;SDS011;9773;47.062;15.446;2023-01-19T08:26:57;1.33;;;1.33;;
19278;SDS011;9773;47.062;15.446;2023-01-19T08:29:26;1.20;;;1.20;;
19278;SDS011;9773;47.062;15.446;2023-01-19T08:31:54;1.30;;;1.30;;
19278;SDS011;9773;47.062;15.446;2023-01-19T08:34:22;1.40;;;1.40;;
19278;SDS011;9773;47.062;15.446;2023-01-19T08:36:48;1.60;;;1.50;;
19278;SDS011;9773;47.062;15.446;2023-01-19T08:39:14;1.60;;;1.50;;
19278;SDS011;9773;47.062;15.446;2023-01-19T08:41:42;1.00;;;1.00;;
19278;SDS011;9773;47.062;15.446;2023-01-19T08:44:08;1.53;;;1.53;;
19278;SDS011;9773;47.062;15.446;2023-01-19T08:46:34;1.50;;;1.40;;
19278;SDS011;9773;47.062;15.446;2023-01-19T08:49:00;1.50;;;1.40;;
19278;SDS011;9773;47.062;15.446;2023-01-19T08:51:26;1.67;;;1.63;;
19278;SDS011;9773;47.062;15.446;2023-01-19T08:53:52;1.17;;;1.17;;
19278;SDS011;9773;47.062;15.446;2023-01-19T08:56:18;2.03;;;1.50;;
19278;SDS011;9773;47.062;15.446;2023-01-19T08:58:44;1.83;;;1.60;;
19278;SDS011;9773;47.062;15.446;2023-01-19T09:01:10;1.47;;;1.37;;
19278;SDS011;9773;47.062;15.446;2023-01-19T09:03:41;1.77;;;1.30;;
19278;SDS011;9773;47.062;15.446;2023-01-19T09:06:08;1.50;;;1.40;;
19278;SDS011;9773;47.062;15.446;2023-01-19T09:08:35;1.37;;;1.27;;
19278;SDS011;9773;47.062;15.446;2023-01-19T09:11:02;3.70;;;1.40;;
19278;SDS011;9773;47.062;15.446;2023-01-19T09:13:29;1.33;;;1.33;;
19278;SDS011;9773;47.062;15.446;2023-01-19T09:15:55;1.47;;;1.37;;
19278;SDS011;9773;47.062;15.446;2023-01-19T09:18:21;4.73;;;1.70;;
19278;SDS011;9773;47.062;15.446;2023-01-19T09:20:47;2.37;;;1.80;;
19278;SDS011;9773;47.062;15.446;2023-01-19T09:23:15;3.03;;;1.60;;
19278;SDS011;9773;47.062;15.446;2023-01-19T09:25:43;2.17;;;2.07;;
19278;SDS011;9773;47.062;15.446;2023-01-19T09:28:10;2.03;;;1.87;;
19278;SDS011;9773;47.062;15.446;2023-01-19T09:30:38;1.93;;;1.83;;
19278;SDS011;9773;47.062;15.446;2023-01-19T09:33:06;1.90;;;1.80;;
19278;SDS011;9773;47.062;15.446;2023-01-19T09:35:39;3.10;;;2.00;;
19278;SDS011;9773;47.062;15.446;2023-01-19T09:38:06;1.80;;;1.70;;
19278;SDS011;9773;47.062;15.446;2023-01-19T09:40:33;1.63;;;1.63;;
19278;SDS011;9773;47.062;15.446;2023-01-19T09:46:24;1.83;;;1.77;;
19278;SDS011;9773;47.062;15.446;2023-01-19T09:48:52;1.63;;;1.53;;
19278;SDS011;9773;47.062;15.446;2023-01-19T09:51:21;1.40;;;1.40;;
19278;SDS011;9773;47.062;15.446;2023-01-19T09:56:30;1.20;;;1.20;;
19278;SDS011;9773;47.062;15.446;2023-01-19T09:58:57;1.50;;;1.40;;
19278;SDS011;9773;47.062;15.446;2023-01-19T10:15:36;1.73;;;1.63;;
19278;SDS011;9773;47.062;15.446;2023-01-19T10:23:50;1.70;;;1.60;;
19278;SDS011;9773;47.062;15.446;2023-01-19T10:26:23;3.30;;;1.70;;
19278;SDS011;9773;47.062;15.446;2023-01-19T10:28:53;1.40;;;1.40;;
19278;SDS011;9773;47.062;15.446;2023-01-19T10:31:25;1.50;;;1.47;;
19278;SDS011;9773;47.062;15.446;2023-01-19T10:33:51;1.90;;;1.80;;
19278;SDS011;9773;47.062;15.446;2023-01-19T10:36:20;1.73;;;1.63;;
19278;SDS011;9773;47.062;15.446;2023-01-19T10:38:58;1.70;;;1.60;;
19278;SDS011;9773;47.062;15.446;2023-01-19T10:41:39;2.20;;;1.50;;
19278;SDS011;9773;47.062;15.446;2023-01-19T10:44:11;1.70;;;1.57;;
19278;SDS011;9773;47.062;15.446;2023-01-19T10:46:51;1.43;;;1.43;;
19278;SDS011;9773;47.062;15.446;2023-01-19T10:51:52;1.50;;;1.50;;
19278;SDS011;9773;47.062;15.446;2023-01-19T10:54:20;1.47;;;1.40;;
19278;SDS011;9773;47.062;15.446;2023-01-19T10:56:50;1.20;;;1.20;;
19278;SDS011;9773;47.062;15.446;2023-01-19T10:59:32;1.40;;;1.30;;
19278;SDS011;9773;47.062;15.446;2023-01-19T11:02:21;1.67;;;1.57;;
19278;SDS011;9773;47.062;15.446;2023-01-19T11:04:58;1.60;;;1.50;;
19278;SDS011;9773;47.062;15.446;2023-01-19T11:07:27;1.53;;;1.43;;
19278;SDS011;9773;47.062;15.446;2023-01-19T11:12:53;2.17;;;1.97;;
19278;SDS011;9773;47.062;15.446;2023-01-19T11:15:39;1.47;;;1.37;;
19278;SDS011;9773;47.062;15.446;2023-01-19T11:18:17;1.50;;;1.40;;
19278;SDS011;9773;47.062;15.446;2023-01-19T11:20:52;1.43;;;1.40;;
19278;SDS011;9773;47.062;15.446;2023-01-19T11:23:53;1.33;;;1.33;;
19278;SDS011;9773;47.062;15.446;2023-01-19T11:26:28;1.90;;;1.80;;
19278;SDS011;9773;47.062;15.446;2023-01-19T11:28:59;1.10;;;1.10;;
19278;SDS011;9773;47.062;15.446;2023-01-19T11:33:56;1.50;;;1.40;;
19278;SDS011;9773;47.062;15.446;2023-01-19T11:36:30;1.43;;;1.33;;
19278;SDS011;9773;47.062;15.446;2023-01-19T11:39:01;1.33;;;1.23;;
19278;SDS011;9773;47.062;15.446;2023-01-19T11:41:48;1.30;;;1.30;;
19278;SDS011;9773;47.062;15.446;2023-01-19T11:44:31;1.50;;;1.40;;
19278;SDS011;9773;47.062;15.446;2023-01-19T11:47:10;0.90;;;0.90;;
19278;SDS011;9773;47.062;15.446;2023-01-19T11:52:44;1.10;;;1.10;;
19278;SDS011;9773;47.062;15.446;2023-01-19T11:55:16;1.80;;;1.70;;
19278;SDS011;9773;47.062;15.446;2023-01-19T11:57:49;1.03;;;1.03;;
19278;SDS011;9773;47.062;15.446;2023-01-19T12:03:45;1.33;;;1.33;;
19278;SDS011;9773;47.062;15.446;2023-01-19T12:06:28;1.20;;;1.20;;
19278;SDS011;9773;47.062;15.446;2023-01-19T12:08:58;1.60;;;1.50;;
19278;SDS011;9773;47.062;15.446;2023-01-19T12:11:33;1.40;;;1.30;;
19278;SDS011;9773;47.062;15.446;2023-01-19T12:14:03;1.20;;;1.20;;
19278;SDS011;9773;47.062;15.446;2023-01-19T12:16:31;1.47;;;1.27;;
19278;SDS011;9773;47.062;15.446;2023-01-19T12:19:02;1.20;;;1.20;;
19278;SDS011;9773;47.062;15.446;2023-01-19T12:21:31;1.03;;;1.03;;
19278;SDS011;9773;47.062;15.446;2023-01-19T12:29:20;2.00;;;1.40;;
19278;SDS011;9773;47.062;15.446;2023-01-19T12:32:30;1.30;;;1.30;;
19278;SDS011;9773;47.062;15.446;2023-01-19T12:34:45;1.10;;;1.10;;
19278;SDS011;9773;47.062;15.446;2023-01-19T12:37:45;1.53;;;1.53;;
19278;SDS011;9773;47.062;15.446;2023-01-19T12:40:19;1.13;;;1.13;;
19278;SDS011;9773;47.062;15.446;2023-01-19T12:43:12;0.97;;;0.97;;
19278;SDS011;9773;47.062;15.446;2023-01-19T12:45:38;1.40;;;1.40;;
19278;SDS011;9773;47.062;15.446;2023-01-19T12:48:05;1.70;;;1.60;;
19278;SDS011;9773;47.062;15.446;2023-01-19T12:50:48;1.70;;;1.60;;
19278;SDS011;9773;47.062;15.446;2023-01-19T12:53:18;1.47;;;1.40;;
19278;SDS011;9773;47.062;15.446;2023-01-19T12:55:56;1.43;;;1.43;;
19278;SDS011;9773;47.062;15.446;2023-01-19T12:58:24;1.10;;;1.10;;
19278;SDS011;9773;47.062;15.446;2023-01-19T13:01:10;0.93;;;0.93;;
19278;SDS011;9773;47.062;15.446;2023-01-19T13:03:42;1.40;;;1.40;;
19278;SDS011;9773;47.062;15.446;2023-01-19T13:14:47;1.80;;;1.50;;
19278;SDS011;9773;47.062;15.446;2023-01-19T13:17:25;1.40;;;1.40;;
19278;SDS011;9773;47.062;15.446;2023-01-19T13:23:21;1.53;;;1.43;;
19278;SDS011;9773;47.062;15.446;2023-01-19T13:25:49;1.40;;;1.30;;
19278;SDS011;9773;47.062;15.446;2023-01-19T13:28:44;2.03;;;1.20;;
19278;SDS011;9773;47.062;15.446;2023-01-19T13:31:14;1.23;;;1.17;;
19278;SDS011;9773;47.062;15.446;2023-01-19T13:36:15;1.87;;;1.70;;
19278;SDS011;9773;47.062;15.446;2023-01-19T13:38:53;1.23;;;1.20;;
19278;SDS011;9773;47.062;15.446;2023-01-19T13:41:21;1.30;;;1.30;;
19278;SDS011;9773;47.062;15.446;2023-01-19T13:43:52;1.60;;;1.50;;
19278;SDS011;9773;47.062;15.446;2023-01-19T13:46:25;1.73;;;1.43;;
19278;SDS011;9773;47.062;15.446;2023-01-19T13:48:56;1.33;;;1.27;;
19278;SDS011;9773;47.062;15.446;2023-01-19T13:51:27;1.57;;;1.57;;
19278;SDS011;9773;47.062;15.446;2023-01-19T13:53:54;1.90;;;1.80;;
19278;SDS011;9773;47.062;15.446;2023-01-19T13:56:26;2.07;;;1.73;;
19278;SDS011;9773;47.062;15.446;2023-01-19T13:59:00;1.50;;;1.50;;
19278;SDS011;9773;47.062;15.446;2023-01-19T14:01:34;1.80;;;1.70;;
19278;SDS011;9773;47.062;15.446;2023-01-19T14:04:01;1.83;;;1.73;;
19278;SDS011;9773;47.062;15.446;2023-01-19T14:06:38;2.17;;;2.07;;
19278;SDS011;9773;47.062;15.446;2023-01-19T14:09:06;1.90;;;1.80;;
19278;SDS011;9773;47.062;15.446;2023-01-19T14:11:43;2.17;;;2.00;;
19278;SDS011;9773;47.062;15.446;2023-01-19T14:14:26;2.00;;;1.90;;
19278;SDS011;9773;47.062;15.446;2023-01-19T14:16:52;2.30;;;2.10;;
19278;SDS011;9773;47.062;15.446;2023-01-19T14:19:19;2.13;;;2.03;;
19278;SDS011;9773;47.062;15.446;2023-01-19T14:21:44;2.37;;;2.03;;
19278;SDS011;9773;47.062;15.446;2023-01-19T14:24:17;1.80;;;1.70;;
19278;SDS011;9773;47.062;15.446;2023-01-19T14:37:05;1.77;;;1.70;;
19278;SDS011;9773;47.062;15.446;2023-01-19T14:39:43;1.93;;;1.83;;
19278;SDS011;9773;47.062;15.446;2023-01-19T14:42:12;3.90;;;1.90;;
19278;SDS011;9773;47.062;15.446;2023-01-19T14:44:43;1.90;;;1.80;;
19278;SDS011;9773;47.062;15.446;2023-01-19T14:50:39;2.40;;;2.20;;
19278;SDS011;9773;47.062;15.446;2023-01-19T14:53:05;2.40;;;2.20;;
19278;SDS011;9773;47.062;15.446;2023-01-19T14:55:43;2.97;;;2.73;;
19278;SDS011;9773;47.062;15.446;2023-01-19T14:58:11;2.90;;;2.70;;
19278;SDS011;9773;47.062;15.446;2023-01-19T15:00:39;2.30;;;2.20;;
19278;SDS011;9773;47.062;15.446;2023-01-19T15:03:05;2.73;;;2.53;;
19278;SDS011;9773;47.062;15.446;2023-01-19T15:05:34;3.53;;;2.77;;
19278;SDS011;9773;47.062;15.446;2023-01-19T15:08:04;4.33;;;3.23;;
19278;SDS011;9773;47.062;15.446;2023-01-19T15:10:31;3.83;;;3.27;;
19278;SDS011;9773;47.062;15.446;2023-01-19T15:12:57;4.80;;;3.90;;
19278;SDS011;9773;47.062;15.446;2023-01-19T15:15:30;4.67;;;3.23;;
19278;SDS011;9773;47.062;15.446;2023-01-19T15:18:01;3.53;;;3.23;;
19278;SDS011;9773;47.062;15.446;2023-01-19T15:20:28;3.30;;;3.10;;
19278;SDS011;9773;47.062;15.446;2023-01-19T15:22:54;4.07;;;3.20;;
19278;SDS011;9773;47.062;15.446;2023-01-19T15:25:21;4.40;;;3.73;;
19278;SDS011;9773;47.062;15.446;2023-01-19T15:27:51;5.03;;;3.10;;
19278;SDS011;9773;47.062;15.446;2023-01-19T15:30:22;3.83;;;3.10;;
19278;SDS011;9773;47.062;15.446;2023-01-19T15:32:51;3.27;;;3.00;;
19278;SDS011;9773;47.062;15.446;2023-01-19T15:35:19;3.00;;;2.70;;
19278;SDS011;9773;47.062;15.446;2023-01-19T15:37:46;4.23;;;3.40;;
19278;SDS011;9773;47.062;15.446;2023-01-19T15:40:14;3.40;;;3.10;;
19278;SDS011;9773;47.062;15.446;2023-01-19T15:42:40;3.47;;;3.17;;
19278;SDS011;9773;47.062;15.446;2023-01-19T15:45:49;3.43;;;3.13;;
19278;SDS011;9773;47.062;15.446;2023-01-19T15:48:00;3.43;;;3.13;;
19278;SDS011;9773;47.062;15.446;2023-01-19T15:50:28;3.00;;;2.80;;
19278;SDS011;9773;47.062;15.446;2023-01-19T15:52:54;5.30;;;3.10;;
19278;SDS011;9773;47.062;15.446;2023-01-19T15:55:20;3.90;;;3.27;;
19278;SDS011;9773;47.062;15.446;2023-01-19T15:57:46;3.73;;;3.43;;
19278;SDS011;9773;47.062;15.446;2023-01-19T16:00:12;3.90;;;3.47;;
19278;SDS011;9773;47.062;15.446;2023-01-19T16:02:39;3.50;;;3.20;;
19278;SDS011;9773;47.062;15.446;2023-01-19T16:05:05;4.30;;;3.07;;
19278;SDS011;9773;47.062;15.446;2023-01-19T16:07:32;3.50;;;3.27;;
19278;SDS011;9773;47.062;15.446;2023-01-19T16:09:58;3.40;;;3.10;;
19278;SDS011;9773;47.062;15.446;2023-01-19T16:12:24;3.60;;;3.30;;
19278;SDS011;9773;47.062;15.446;2023-01-19T16:14:51;3.70;;;3.10;;
19278;SDS011;9773;47.062;15.446;2023-01-19T16:17:16;3.37;;;3.10;;
19278;SDS011;9773;47.062;15.446;2023-01-19T16:19:42;4.20;;;3.50;;
19278;SDS011;9773;47.062;15.446;2023-01-19T16:22:09;3.10;;;2.87;;
19278;SDS011;9773;47.062;15.446;2023-01-19T16:24:35;3.87;;;3.50;;
19278;SDS011;9773;47.062;15.446;2023-01-19T16:27:01;4.23;;;3.73;;
19278;SDS011;9773;47.062;15.446;2023-01-19T16:29:28;4.07;;;3.67;;
19278;SDS011;9773;47.062;15.446;2023-01-19T16:31:54;4.90;;;4.40;;